createdAt,value
2023-12-04T00:02:02.176Z,2.72
2023-12-04T00:04:49.406Z,2.70
2023-12-04T00:07:36.546Z,3.13
2023-12-04T00:10:23.711Z,2.58
2023-12-04T00:13:10.837Z,2.47
2023-12-04T00:15:58.228Z,2.15
2023-12-04T00:18:45.652Z,2.60
2023-12-04T00:21:32.995Z,2.60
2023-12-04T00:24:20.205Z,2.55
2023-12-04T00:27:07.350Z,2.90
2023-12-04T00:29:54.803Z,2.83
2023-12-04T00:32:42.088Z,2.50
2023-12-04T00:35:29.268Z,2.60
2023-12-04T00:38:17.170Z,2.20
2023-12-04T00:41:04.648Z,2.30
2023-12-04T00:43:51.767Z,2.70
2023-12-04T00:46:38.930Z,2.50
2023-12-04T00:49:26.123Z,2.30
2023-12-04T00:52:13.454Z,2.50
2023-12-04T00:55:00.696Z,2.70
2023-12-04T00:57:48.099Z,2.45
2023-12-04T01:00:35.292Z,2.42
2023-12-04T01:03:22.466Z,2.45
2023-12-04T01:06:21.157Z,2.35
2023-12-04T01:09:08.265Z,2.67
2023-12-04T01:11:55.896Z,2.78
2023-12-04T01:14:43.120Z,2.47
2023-12-04T01:17:30.285Z,2.50
2023-12-04T01:20:17.603Z,2.45
2023-12-04T01:23:04.776Z,3.00
2023-12-04T01:25:51.904Z,2.25
2023-12-04T01:28:39.080Z,2.35
2023-12-04T01:31:26.261Z,2.45
2023-12-04T01:34:13.427Z,2.63
2023-12-04T01:37:00.665Z,2.13
2023-12-04T01:39:47.854Z,2.47
2023-12-04T01:42:35.091Z,2.60
2023-12-04T01:45:22.263Z,2.50
2023-12-04T01:48:10.755Z,2.58
2023-12-04T01:51:01.360Z,2.58
2023-12-04T01:56:37.916Z,2.15
2023-12-04T01:59:27.235Z,2.70
2023-12-04T02:02:15.011Z,2.80
2023-12-04T02:05:03.955Z,2.53
2023-12-04T02:07:51.573Z,2.22
2023-12-04T02:10:39.986Z,2.15
2023-12-04T02:13:27.508Z,2.40
2023-12-04T02:16:19.926Z,2.58
2023-12-04T02:19:10.144Z,2.63
2023-12-04T02:21:57.311Z,2.50
2023-12-04T02:24:44.568Z,2.75
2023-12-04T02:27:50.444Z,2.30
2023-12-04T02:30:39.086Z,2.67
2023-12-04T02:33:28.652Z,2.38
2023-12-04T02:36:17.387Z,2.63
2023-12-04T02:39:05.754Z,2.50
2023-12-04T02:41:52.923Z,2.45
2023-12-04T02:44:40.091Z,2.50
2023-12-04T02:47:27.431Z,2.40
2023-12-04T02:50:14.618Z,2.42
2023-12-04T02:53:01.827Z,2.50
2023-12-04T02:55:48.986Z,2.78
2023-12-04T02:58:36.224Z,2.50
2023-12-04T03:01:23.508Z,2.50
2023-12-04T03:04:10.784Z,2.90
2023-12-04T03:06:58.098Z,2.40
2023-12-04T03:09:48.801Z,2.40
2023-12-04T03:12:37.016Z,2.53
2023-12-04T03:15:24.331Z,2.75
2023-12-04T03:18:12.968Z,2.22
2023-12-04T03:21:00.346Z,2.50
2023-12-04T03:23:47.422Z,2.47
2023-12-04T03:26:34.552Z,2.35
2023-12-04T03:29:21.774Z,2.45
2023-12-04T03:32:08.940Z,2.25
2023-12-04T03:34:56.084Z,2.50
2023-12-04T03:37:43.200Z,2.38
2023-12-04T03:40:30.286Z,2.60
2023-12-04T03:43:18.312Z,2.55
2023-12-04T03:46:05.864Z,2.50
2023-12-04T03:48:53.166Z,2.58
2023-12-04T03:51:40.382Z,2.53
2023-12-04T03:54:27.520Z,2.40
2023-12-04T03:57:15.117Z,2.50
2023-12-04T04:00:02.561Z,2.60
2023-12-04T04:02:58.745Z,2.38
2023-12-04T04:05:45.876Z,2.10
2023-12-04T04:08:32.996Z,2.58
2023-12-04T04:11:20.164Z,2.05
2023-12-04T04:14:07.462Z,2.45
2023-12-04T04:16:54.609Z,2.42
2023-12-04T04:19:42.537Z,2.30
2023-12-04T04:22:29.727Z,2.25
2023-12-04T04:25:17.655Z,2.58
2023-12-04T04:28:04.837Z,2.50
2023-12-04T04:30:52.050Z,2.53
2023-12-04T04:33:39.365Z,1.98
2023-12-04T04:36:26.577Z,2.35
2023-12-04T04:39:15.154Z,2.40
2023-12-04T04:42:02.269Z,2.58
2023-12-04T04:44:49.411Z,2.70
2023-12-04T04:47:36.729Z,2.30
2023-12-04T04:50:23.930Z,2.40
2023-12-04T04:53:11.095Z,2.35
2023-12-04T04:55:58.330Z,2.13
2023-12-04T04:58:46.143Z,2.20
2023-12-04T05:01:40.299Z,2.40
2023-12-04T05:04:27.613Z,1.92
2023-12-04T05:07:15.508Z,2.38
2023-12-04T05:10:04.967Z,2.17
2023-12-04T05:12:53.676Z,2.30
2023-12-04T05:15:41.043Z,2.22
2023-12-04T05:18:28.206Z,2.17
2023-12-04T05:21:15.454Z,1.98
2023-12-04T05:24:02.638Z,2.40
2023-12-04T05:26:49.765Z,1.80
2023-12-04T05:29:36.888Z,2.20
2023-12-04T05:32:24.012Z,2.30
2023-12-04T05:35:11.190Z,2.10
2023-12-04T05:37:58.314Z,2.13
2023-12-04T05:40:45.756Z,2.20
2023-12-04T05:43:32.884Z,2.22
2023-12-04T05:46:20.160Z,2.38
2023-12-04T05:49:07.391Z,2.00
2023-12-04T05:51:54.588Z,1.90
2023-12-04T05:54:41.742Z,2.00
2023-12-04T05:57:28.947Z,2.10
2023-12-04T06:00:16.435Z,1.85
2023-12-04T06:03:03.731Z,1.88
2023-12-04T06:05:52.250Z,1.98
2023-12-04T06:08:40.506Z,1.95
2023-12-04T06:11:27.713Z,1.77
2023-12-04T06:14:14.942Z,1.80
2023-12-04T06:17:02.686Z,1.88
2023-12-04T06:19:49.925Z,1.83
2023-12-04T06:22:37.377Z,2.10
2023-12-04T06:25:25.295Z,1.90
2023-12-04T06:28:13.784Z,2.20
2023-12-04T06:31:01.513Z,1.80
2023-12-04T06:33:49.096Z,1.80
2023-12-04T06:36:42.402Z,1.70
2023-12-04T06:39:34.695Z,1.67
2023-12-04T06:42:22.332Z,1.73
2023-12-04T06:45:10.940Z,1.80
2023-12-04T06:47:59.009Z,1.80
2023-12-04T06:50:46.193Z,1.63
2023-12-04T06:53:33.330Z,1.90
2023-12-04T06:56:21.112Z,1.80
2023-12-04T06:59:08.531Z,1.73
2023-12-04T07:01:55.740Z,1.70
2023-12-04T07:04:43.073Z,1.90
2023-12-04T07:07:30.266Z,1.70
2023-12-04T07:10:17.544Z,1.92
2023-12-04T07:13:05.574Z,1.88
2023-12-04T07:15:52.736Z,1.63
2023-12-04T07:18:40.080Z,1.48
2023-12-04T07:21:27.387Z,2.08
2023-12-04T07:24:14.585Z,2.05
2023-12-04T07:27:01.746Z,1.67
2023-12-04T07:29:48.875Z,1.77
2023-12-04T07:32:36.579Z,1.85
2023-12-04T07:35:23.982Z,1.67
2023-12-04T07:38:11.197Z,1.65
2023-12-04T07:40:59.689Z,1.77
2023-12-04T07:43:47.122Z,1.80
2023-12-04T07:46:34.467Z,1.65
2023-12-04T07:49:21.689Z,1.77
2023-12-04T07:52:09.738Z,1.90
2023-12-04T07:54:57.392Z,1.63
2023-12-04T07:57:44.713Z,1.90
2023-12-04T08:00:31.892Z,1.77
2023-12-04T08:03:19.517Z,1.92
2023-12-04T08:06:07.202Z,2.00
2023-12-04T08:08:55.616Z,1.55
2023-12-04T08:11:42.918Z,1.77
2023-12-04T08:14:30.209Z,1.88
2023-12-04T08:17:17.361Z,1.83
2023-12-04T08:20:05.534Z,1.75
2023-12-04T08:22:52.866Z,2.30
2023-12-04T08:25:40.655Z,2.08
2023-12-04T08:28:28.028Z,2.35
2023-12-04T08:31:15.608Z,1.73
2023-12-04T08:34:02.763Z,2.22
2023-12-04T08:36:50.089Z,2.20
2023-12-04T08:39:37.370Z,2.55
2023-12-04T08:42:24.864Z,2.80
2023-12-04T08:45:12.511Z,3.17
2023-12-04T08:47:59.717Z,3.42
2023-12-04T08:50:47.008Z,3.50
2023-12-04T08:53:34.128Z,3.67
2023-12-04T08:56:26.052Z,3.80
2023-12-04T08:59:18.366Z,4.15
2023-12-04T09:02:05.919Z,3.75
2023-12-04T09:04:53.450Z,3.97
2023-12-04T09:08:28.656Z,4.05
2023-12-04T09:11:03.164Z,3.55
2023-12-04T09:13:56.022Z,3.83
2023-12-04T09:16:44.040Z,4.05
2023-12-04T09:19:31.431Z,3.95
2023-12-04T09:22:21.159Z,4.18
2023-12-04T09:25:11.993Z,5.05
2023-12-04T09:27:59.212Z,5.13
2023-12-04T09:30:46.553Z,4.75
2023-12-04T09:33:33.757Z,5.20
2023-12-04T09:36:21.117Z,4.45
2023-12-04T09:39:08.385Z,4.40
2023-12-04T09:41:57.027Z,4.60
2023-12-04T09:44:45.143Z,4.88
2023-12-04T09:47:35.388Z,5.70
2023-12-04T09:53:14.889Z,4.22
2023-12-04T09:56:05.333Z,4.70
2023-12-04T10:01:48.858Z,4.57
2023-12-04T10:04:36.973Z,4.55
2023-12-04T10:07:24.129Z,4.82
2023-12-04T10:10:12.011Z,4.30
2023-12-04T10:12:59.637Z,4.10
2023-12-04T10:15:52.669Z,4.80
2023-12-04T10:18:39.974Z,4.80
2023-12-04T10:21:34.450Z,5.10
2023-12-04T10:24:39.792Z,4.70
2023-12-04T10:27:28.119Z,4.80
2023-12-04T10:30:28.481Z,4.80
2023-12-04T10:33:16.413Z,4.60
2023-12-04T10:36:05.503Z,5.00
2023-12-04T10:39:02.012Z,4.45
2023-12-04T10:42:04.570Z,4.95
2023-12-04T10:44:52.111Z,4.72
2023-12-04T10:47:40.274Z,4.68
2023-12-04T10:50:29.779Z,4.63
2023-12-04T10:53:18.591Z,5.40
2023-12-04T10:56:07.205Z,4.65
2023-12-04T10:58:57.975Z,4.72
2023-12-04T11:01:48.642Z,4.40
2023-12-04T11:04:40.082Z,4.97
2023-12-04T11:07:28.957Z,4.40
2023-12-04T11:10:18.194Z,4.43
2023-12-04T11:13:16.870Z,4.70
2023-12-04T11:16:19.730Z,4.47
2023-12-04T11:19:23.076Z,4.32
2023-12-04T11:22:12.929Z,4.72
2023-12-04T11:25:02.484Z,4.47
2023-12-04T11:27:50.772Z,4.53
2023-12-04T11:30:39.018Z,4.43
2023-12-04T11:33:26.388Z,4.40
2023-12-04T11:36:16.019Z,5.28
2023-12-04T11:39:04.379Z,12.80
2023-12-04T11:41:52.061Z,13.77
2023-12-04T11:44:42.847Z,14.60
2023-12-04T11:47:30.237Z,13.95
2023-12-04T11:50:20.315Z,14.70
2023-12-04T11:53:07.538Z,14.10
2023-12-04T11:55:59.932Z,13.07
2023-12-04T11:58:48.434Z,13.25
2023-12-04T12:01:38.379Z,12.57
2023-12-04T12:04:30.214Z,12.02
2023-12-04T12:07:19.223Z,13.20
2023-12-04T12:10:07.008Z,11.20
2023-12-04T12:12:54.347Z,11.07
2023-12-04T12:15:41.634Z,10.48
2023-12-04T12:18:29.676Z,11.10
2023-12-04T12:21:17.674Z,10.48
2023-12-04T12:24:07.984Z,10.10
2023-12-04T12:26:56.548Z,9.48
2023-12-04T12:29:44.336Z,9.30
2023-12-04T12:32:37.980Z,9.05
2023-12-04T12:35:26.436Z,8.98
2023-12-04T12:38:13.646Z,8.73
2023-12-04T12:41:00.940Z,8.68
2023-12-04T12:43:52.123Z,8.50
2023-12-04T12:46:42.118Z,8.57
2023-12-04T12:49:36.406Z,7.50
2023-12-04T12:52:28.173Z,8.25
2023-12-04T12:55:28.233Z,8.25
2023-12-04T12:58:16.636Z,6.97
2023-12-04T13:01:04.292Z,8.13
2023-12-04T13:03:51.662Z,6.90
2023-12-04T13:06:39.461Z,6.80
2023-12-04T13:09:26.681Z,6.70
2023-12-04T13:12:15.088Z,6.63
2023-12-04T13:15:03.151Z,6.28
2023-12-04T13:17:50.373Z,5.93
2023-12-04T13:20:37.552Z,6.28
2023-12-04T13:23:25.427Z,6.20
2023-12-04T13:26:12.583Z,5.90
2023-12-04T13:29:00.290Z,5.93
2023-12-04T13:31:51.658Z,6.00
2023-12-04T13:34:39.130Z,5.88
2023-12-04T13:37:28.338Z,5.82
2023-12-04T13:40:17.732Z,5.25
2023-12-04T13:43:23.677Z,5.50
2023-12-04T13:46:11.469Z,5.95
2023-12-04T13:49:00.305Z,5.10
2023-12-04T13:51:50.485Z,5.53
2023-12-04T13:54:48.972Z,4.90
2023-12-04T13:57:45.335Z,5.00
2023-12-04T14:00:32.954Z,4.93
2023-12-04T14:03:20.817Z,4.80
2023-12-04T14:06:08.821Z,4.28
2023-12-04T14:08:59.757Z,4.80
2023-12-04T14:11:47.225Z,4.50
2023-12-04T14:14:38.463Z,5.10
2023-12-04T14:17:25.863Z,4.78
2023-12-04T14:20:16.398Z,5.10
2023-12-04T14:23:03.655Z,4.45
2023-12-04T14:25:50.866Z,4.13
2023-12-04T14:28:42.831Z,4.22
2023-12-04T14:31:31.307Z,4.65
2023-12-04T14:34:18.777Z,5.03
2023-12-04T14:37:06.072Z,4.95
2023-12-04T14:39:53.532Z,4.75
2023-12-04T14:42:41.808Z,4.45
2023-12-04T14:45:29.406Z,3.70
2023-12-04T14:48:16.637Z,4.25
2023-12-04T14:51:05.088Z,4.00
2023-12-04T14:54:12.027Z,3.90
2023-12-04T14:57:17.804Z,3.80
2023-12-04T15:00:15.051Z,4.00
2023-12-04T15:03:22.252Z,3.90
2023-12-04T15:06:12.712Z,3.72
2023-12-04T15:09:18.677Z,3.58
2023-12-04T15:12:24.630Z,3.60
2023-12-04T15:15:11.802Z,4.07
2023-12-04T15:18:19.120Z,3.65
2023-12-04T15:21:08.117Z,3.65
2023-12-04T15:23:55.412Z,3.40
2023-12-04T15:26:42.520Z,3.45
2023-12-04T15:29:31.509Z,3.55
2023-12-04T15:32:18.770Z,3.60
2023-12-04T15:35:10.798Z,3.70
2023-12-04T15:38:01.142Z,3.38
2023-12-04T15:40:48.836Z,3.55
2023-12-04T15:43:36.311Z,3.03
2023-12-04T15:46:24.050Z,3.70
2023-12-04T15:49:12.224Z,3.53
2023-12-04T15:51:59.611Z,3.47
2023-12-04T15:54:48.025Z,3.15
2023-12-04T15:57:36.020Z,3.13
2023-12-04T16:00:27.175Z,3.20
2023-12-04T16:03:14.365Z,3.45
2023-12-04T16:06:01.861Z,3.25
2023-12-04T16:08:49.111Z,3.08
2023-12-04T16:11:36.486Z,3.65
2023-12-04T16:14:23.672Z,3.15
2023-12-04T16:17:10.862Z,3.30
2023-12-04T16:20:01.005Z,3.15
2023-12-04T16:22:49.235Z,3.35
2023-12-04T16:25:36.358Z,3.50
2023-12-04T16:28:24.084Z,2.92
2023-12-04T16:31:11.240Z,3.35
2023-12-04T16:33:58.488Z,3.00
2023-12-04T16:36:46.588Z,3.13
2023-12-04T16:39:33.821Z,3.28
2023-12-04T16:42:22.026Z,3.17
2023-12-04T16:45:09.772Z,2.85
2023-12-04T16:47:57.123Z,3.00
2023-12-04T16:50:44.487Z,3.20
2023-12-04T16:53:32.983Z,3.17
2023-12-04T16:56:20.281Z,3.33
2023-12-04T16:59:07.945Z,3.40
2023-12-04T17:01:55.146Z,3.00
2023-12-04T17:04:42.493Z,2.85
2023-12-04T17:07:29.805Z,3.17
2023-12-04T17:10:17.197Z,3.13
2023-12-04T17:13:05.327Z,2.78
2023-12-04T17:15:53.150Z,2.83
2023-12-04T17:18:41.150Z,2.90
2023-12-04T17:21:28.381Z,2.97
2023-12-04T17:24:16.066Z,2.55
2023-12-04T17:27:03.397Z,2.92
2023-12-04T17:29:50.589Z,3.10
2023-12-04T17:32:39.470Z,2.90
2023-12-04T17:35:27.236Z,2.83
2023-12-04T17:38:14.421Z,2.75
2023-12-04T17:41:01.674Z,2.85
2023-12-04T17:43:49.259Z,2.50
2023-12-04T17:46:36.388Z,2.67
2023-12-04T17:49:23.526Z,2.65
2023-12-04T17:52:11.660Z,2.83
2023-12-04T17:54:58.839Z,2.70
2023-12-04T17:57:46.028Z,2.70
2023-12-04T18:00:33.283Z,2.75
2023-12-04T18:03:21.043Z,2.65
2023-12-04T18:06:08.973Z,2.22
2023-12-04T18:08:56.691Z,2.40
2023-12-04T18:11:43.845Z,2.60
2023-12-04T18:14:31.081Z,2.40
2023-12-04T18:17:18.375Z,2.45
2023-12-04T18:20:07.537Z,2.30
2023-12-04T18:22:56.865Z,2.40
2023-12-04T18:25:46.368Z,2.50
2023-12-04T18:28:34.611Z,2.13
2023-12-04T18:31:22.340Z,2.72
2023-12-04T18:34:10.077Z,2.40
2023-12-04T18:37:08.077Z,2.30
2023-12-04T18:39:59.956Z,2.40
2023-12-04T18:42:47.812Z,2.50
2023-12-04T18:45:35.421Z,2.38
2023-12-04T18:48:28.421Z,2.08
2023-12-04T18:51:16.451Z,2.55
2023-12-04T18:54:03.967Z,2.60
2023-12-04T18:56:51.098Z,3.03
2023-12-04T18:59:38.910Z,2.80
2023-12-04T19:02:26.550Z,3.15
2023-12-04T19:05:14.075Z,2.80
2023-12-04T19:08:02.954Z,2.72
2023-12-04T19:10:50.151Z,2.63
2023-12-04T19:13:37.371Z,2.50
2023-12-04T19:16:24.603Z,2.53
2023-12-04T19:19:12.130Z,2.60
2023-12-04T19:21:59.285Z,2.72
2023-12-04T19:24:46.653Z,2.90
2023-12-04T19:27:33.929Z,3.13
2023-12-04T19:30:21.150Z,3.20
2023-12-04T19:33:14.952Z,2.40
2023-12-04T19:36:07.370Z,2.80
2023-12-04T19:38:54.582Z,2.45
2023-12-04T19:41:42.479Z,2.53
2023-12-04T19:44:29.588Z,2.78
2023-12-04T19:47:16.912Z,2.95
2023-12-04T19:50:04.650Z,2.78
2023-12-04T19:52:51.887Z,2.40
2023-12-04T19:55:39.065Z,2.50
2023-12-04T19:58:26.219Z,2.78
2023-12-04T20:01:27.620Z,2.55
2023-12-04T20:04:14.913Z,2.70
2023-12-04T20:07:02.409Z,3.03
2023-12-04T20:09:49.584Z,2.30
2023-12-04T20:12:36.973Z,2.85
2023-12-04T20:15:24.529Z,2.70
2023-12-04T20:18:12.005Z,2.88
2023-12-04T20:20:59.201Z,2.50
2023-12-04T20:23:46.376Z,3.13
2023-12-04T20:26:33.525Z,2.47
2023-12-04T20:29:20.698Z,2.65
2023-12-04T20:32:10.319Z,2.58
2023-12-04T20:34:59.309Z,2.80
2023-12-04T20:37:46.718Z,2.45
2023-12-04T20:40:34.237Z,2.83
2023-12-04T20:43:21.501Z,2.50
2023-12-04T20:46:08.762Z,2.50
2023-12-04T20:48:56.128Z,2.60
2023-12-04T20:51:43.320Z,2.80
2023-12-04T20:54:30.492Z,2.53
2023-12-04T20:57:18.018Z,2.63
2023-12-04T21:00:07.890Z,2.72
2023-12-04T21:02:55.356Z,2.58
2023-12-04T21:05:42.612Z,2.60
2023-12-04T21:08:29.967Z,2.72
2023-12-04T21:11:17.129Z,2.63
2023-12-04T21:14:05.022Z,2.75
2023-12-04T21:16:58.543Z,2.92
2023-12-04T21:19:48.413Z,2.58
2023-12-04T21:22:35.657Z,2.65
2023-12-04T21:25:23.319Z,2.65
2023-12-04T21:28:10.578Z,2.88
2023-12-04T21:30:57.940Z,2.60
2023-12-04T21:33:45.231Z,2.75
2023-12-04T21:36:32.548Z,2.50
2023-12-04T21:39:20.177Z,2.60
2023-12-04T21:42:09.054Z,2.50
2023-12-04T21:44:56.372Z,2.75
2023-12-04T21:47:43.546Z,2.70
2023-12-04T21:50:31.680Z,2.20
2023-12-04T21:53:18.786Z,2.63
2023-12-04T21:56:06.711Z,2.70
2023-12-04T21:58:54.993Z,2.88
2023-12-04T22:01:42.180Z,2.92
2023-12-04T22:04:29.434Z,2.50
2023-12-04T22:07:16.760Z,2.58
2023-12-04T22:10:06.278Z,2.65
2023-12-04T22:12:53.493Z,2.45
2023-12-04T22:15:40.710Z,2.75
2023-12-04T22:18:28.463Z,2.33
2023-12-04T22:21:20.092Z,2.42
2023-12-04T22:24:07.505Z,2.40
2023-12-04T22:26:55.177Z,2.20
2023-12-04T22:29:42.361Z,2.40
2023-12-04T22:32:29.568Z,2.03
2023-12-04T22:35:16.692Z,2.40
2023-12-04T22:38:03.939Z,2.50
2023-12-04T22:40:51.419Z,2.40
2023-12-04T22:43:40.212Z,2.88
2023-12-04T22:46:28.164Z,3.17
2023-12-04T22:49:16.216Z,3.00
2023-12-04T22:52:03.758Z,3.22
2023-12-04T22:54:51.104Z,3.00
2023-12-04T22:57:38.269Z,2.88
2023-12-04T23:00:26.630Z,2.75
2023-12-04T23:03:14.303Z,2.85
2023-12-04T23:06:01.570Z,3.10
2023-12-04T23:08:48.725Z,3.08
2023-12-04T23:11:36.194Z,2.83
2023-12-04T23:14:24.033Z,2.65
2023-12-04T23:17:11.169Z,2.45
2023-12-04T23:19:58.668Z,2.67
2023-12-04T23:22:45.846Z,2.47
2023-12-04T23:25:33.008Z,2.30
2023-12-04T23:28:20.130Z,2.40
2023-12-04T23:31:07.619Z,2.72
2023-12-04T23:33:55.053Z,2.40
2023-12-04T23:36:43.032Z,2.33
2023-12-04T23:39:30.878Z,2.10
2023-12-04T23:42:18.056Z,2.20
2023-12-04T23:45:07.171Z,2.65
2023-12-04T23:47:54.415Z,2.38
2023-12-04T23:50:41.681Z,2.30
2023-12-04T23:53:28.829Z,2.33
2023-12-04T23:56:16.566Z,2.78
2023-12-04T23:59:03.739Z,2.20
